LTBI/ESK METAR and TAF weather

Enter ICAO airport designator
Station Type Date Time Source
LTBI METAR 2022/12/05 14:50 UTC NOAA

LTBI 051450Z 07005KT 9999 SCT035 07/05 Q1022 NOSIG RMK RWY08 09004KT


Station Type Date Time Source
LTBI Decoded METAR 2022/12/05 14:50 UTC NOAA

Eskisehir, Turkey (LTBI) 39-47N 030-34E 785M
Dec 05, 2022 - 09:50 AM EST / 2022.12.05 1450 UTC
Wind: from the ENE (070 degrees) at 6 MPH (5 KT):0
Visibility: greater than 7 mile(s):0
Sky conditions: partly cloudy
Temperature: 44 F (7 C)
Dew Point: 41 F (5 C)
Relative Humidity: 87%
Pressure (altimeter): 30.18 in. Hg (1022 hPa)
ob: LTBI 051450Z 07005KT 9999 SCT035 07/05 Q1022 NOSIG RMK RWY08 09004KT
cycle: 15

Station Type Date Time Source
LTBI TAF 2012/05/11 09:09 UTC NOAA

TAF LTBI 110740Z 1109/1121 VRB02KT 6000 -SHRA BKN030 BKN090
TEMPO 1112/1116 33015KT 4000 -TSRA FEW025CB BKN030

Example: see airport list